sensor_id;sensor_type;location;lat;lon;timestamp;temperature;humidity
8178;DHT22;4130;48.740;9.132;2022-12-18T00:02:20;-10.40;99.90
8178;DHT22;4130;48.740;9.132;2022-12-18T00:04:47;-10.40;99.90
8178;DHT22;4130;48.740;9.132;2022-12-18T00:07:14;-10.40;99.90
8178;DHT22;4130;48.740;9.132;2022-12-18T00:09:41;-10.40;99.90
8178;DHT22;4130;48.740;9.132;2022-12-18T00:12:08;-10.50;99.90
8178;DHT22;4130;48.740;9.132;2022-12-18T00:14:35;-10.50;99.90
8178;DHT22;4130;48.740;9.132;2022-12-18T00:17:03;-10.50;99.90
8178;DHT22;4130;48.740;9.132;2022-12-18T00:19:30;-10.40;99.90
8178;DHT22;4130;48.740;9.132;2022-12-18T00:21:58;-10.40;99.90
8178;DHT22;4130;48.740;9.132;2022-12-18T00:24:25;-10.30;99.90
8178;DHT22;4130;48.740;9.132;2022-12-18T00:26:52;-10.30;99.90
8178;DHT22;4130;48.740;9.132;2022-12-18T00:29:19;-10.20;99.90
8178;DHT22;4130;48.740;9.132;2022-12-18T00:31:46;-10.20;99.90
8178;DHT22;4130;48.740;9.132;2022-12-18T00:34:15;-10.20;99.90
8178;DHT22;4130;48.740;9.132;2022-12-18T00:36:42;-10.10;99.90
8178;DHT22;4130;48.740;9.132;2022-12-18T00:39:10;-10.10;99.90
8178;DHT22;4130;48.740;9.132;2022-12-18T00:41:37;-10.10;99.90
8178;DHT22;4130;48.740;9.132;2022-12-18T00:44:22;-10.10;99.90
8178;DHT22;4130;48.740;9.132;2022-12-18T00:46:49;-10.10;99.90
8178;DHT22;4130;48.740;9.132;2022-12-18T00:49:18;-10.00;99.90
8178;DHT22;4130;48.740;9.132;2022-12-18T00:51:45;-10.10;99.90
8178;DHT22;4130;48.740;9.132;2022-12-18T00:54:12;-10.00;99.90
8178;DHT22;4130;48.740;9.132;2022-12-18T00:56:39;-10.00;99.90
8178;DHT22;4130;48.740;9.132;2022-12-18T00:59:06;-10.10;99.90
8178;DHT22;4130;48.740;9.132;2022-12-18T01:01:33;-10.10;99.90
8178;DHT22;4130;48.740;9.132;2022-12-18T01:04:02;-10.10;99.90
8178;DHT22;4130;48.740;9.132;2022-12-18T01:06:30;-10.10;99.90
8178;DHT22;4130;48.740;9.132;2022-12-18T01:08:57;-10.10;99.90
8178;DHT22;4130;48.740;9.132;2022-12-18T01:11:24;-10.10;99.90
8178;DHT22;4130;48.740;9.132;2022-12-18T01:13:52;-10.10;99.90
8178;DHT22;4130;48.740;9.132;2022-12-18T01:16:19;-10.10;99.90
8178;DHT22;4130;48.740;9.132;2022-12-18T01:18:46;-10.20;99.90
8178;DHT22;4130;48.740;9.132;2022-12-18T01:21:15;-10.20;99.90
8178;DHT22;4130;48.740;9.132;2022-12-18T01:23:44;-10.20;99.90
8178;DHT22;4130;48.740;9.132;2022-12-18T01:26:13;-10.20;99.90
8178;DHT22;4130;48.740;9.132;2022-12-18T01:28:41;-10.20;99.90
8178;DHT22;4130;48.740;9.132;2022-12-18T01:31:15;-10.30;99.90
8178;DHT22;4130;48.740;9.132;2022-12-18T01:33:42;-10.30;99.90
8178;DHT22;4130;48.740;9.132;2022-12-18T01:36:16;-10.40;99.90
8178;DHT22;4130;48.740;9.132;2022-12-18T01:38:44;-10.40;99.90
8178;DHT22;4130;48.740;9.132;2022-12-18T01:41:11;-10.40;99.90
8178;DHT22;4130;48.740;9.132;2022-12-18T01:43:43;-10.40;99.90
8178;DHT22;4130;48.740;9.132;2022-12-18T01:46:10;-10.30;99.90
8178;DHT22;4130;48.740;9.132;2022-12-18T01:48:38;-10.30;99.90
8178;DHT22;4130;48.740;9.132;2022-12-18T01:51:07;-10.30;99.90
8178;DHT22;4130;48.740;9.132;2022-12-18T01:53:36;-10.30;99.90
8178;DHT22;4130;48.740;9.132;2022-12-18T01:56:05;-10.20;99.90
8178;DHT22;4130;48.740;9.132;2022-12-18T01:58:38;-10.20;99.90
8178;DHT22;4130;48.740;9.132;2022-12-18T02:01:08;-10.20;99.90
8178;DHT22;4130;48.740;9.132;2022-12-18T02:03:34;-10.20;99.90
8178;DHT22;4130;48.740;9.132;2022-12-18T02:06:09;-10.20;99.90
8178;DHT22;4130;48.740;9.132;2022-12-18T02:08:43;-10.10;99.90
8178;DHT22;4130;48.740;9.132;2022-12-18T02:11:20;-10.00;99.90
8178;DHT22;4130;48.740;9.132;2022-12-18T02:13:56;-10.00;99.90
8178;DHT22;4130;48.740;9.132;2022-12-18T02:16:32;-9.90;99.90
8178;DHT22;4130;48.740;9.132;2022-12-18T02:19:08;-9.90;99.90
8178;DHT22;4130;48.740;9.132;2022-12-18T02:21:49;-9.80;99.90
8178;DHT22;4130;48.740;9.132;2022-12-18T02:24:30;-9.70;99.90
8178;DHT22;4130;48.740;9.132;2022-12-18T02:27:03;-9.80;99.90
8178;DHT22;4130;48.740;9.132;2022-12-18T02:29:37;-9.80;99.90
8178;DHT22;4130;48.740;9.132;2022-12-18T02:32:09;-9.80;99.90
8178;DHT22;4130;48.740;9.132;2022-12-18T02:34:39;-9.80;99.90
8178;DHT22;4130;48.740;9.132;2022-12-18T02:37:09;-9.90;99.90
8178;DHT22;4130;48.740;9.132;2022-12-18T02:39:38;-9.90;99.90
8178;DHT22;4130;48.740;9.132;2022-12-18T02:42:07;-9.90;99.90
8178;DHT22;4130;48.740;9.132;2022-12-18T02:44:35;-9.90;99.90
8178;DHT22;4130;48.740;9.132;2022-12-18T02:47:09;-9.90;99.90
8178;DHT22;4130;48.740;9.132;2022-12-18T02:49:41;-10.00;99.90
8178;DHT22;4130;48.740;9.132;2022-12-18T02:52:18;-10.00;99.90
8178;DHT22;4130;48.740;9.132;2022-12-18T02:54:55;-10.00;99.90
8178;DHT22;4130;48.740;9.132;2022-12-18T02:57:33;-10.00;99.90
8178;DHT22;4130;48.740;9.132;2022-12-18T03:00:05;-10.00;99.90
8178;DHT22;4130;48.740;9.132;2022-12-18T03:02:37;-10.00;99.90
8178;DHT22;4130;48.740;9.132;2022-12-18T03:05:28;-10.00;99.90
8178;DHT22;4130;48.740;9.132;2022-12-18T03:08:00;-10.00;99.90
8178;DHT22;4130;48.740;9.132;2022-12-18T03:10:29;-10.00;99.90
8178;DHT22;4130;48.740;9.132;2022-12-18T03:13:03;-10.00;99.90
8178;DHT22;4130;48.740;9.132;2022-12-18T03:15:34;-10.00;99.90
8178;DHT22;4130;48.740;9.132;2022-12-18T03:18:04;-10.00;99.90
8178;DHT22;4130;48.740;9.132;2022-12-18T03:20:34;-10.10;99.90
8178;DHT22;4130;48.740;9.132;2022-12-18T03:23:07;-10.10;99.90
8178;DHT22;4130;48.740;9.132;2022-12-18T03:25:38;-10.10;99.90
8178;DHT22;4130;48.740;9.132;2022-12-18T03:28:10;-10.10;99.90
8178;DHT22;4130;48.740;9.132;2022-12-18T03:30:40;-10.20;99.90
8178;DHT22;4130;48.740;9.132;2022-12-18T03:33:15;-10.20;99.90
8178;DHT22;4130;48.740;9.132;2022-12-18T03:35:48;-10.20;99.90
8178;DHT22;4130;48.740;9.132;2022-12-18T03:38:15;-10.20;99.90
8178;DHT22;4130;48.740;9.132;2022-12-18T03:40:49;-10.20;99.90
8178;DHT22;4130;48.740;9.132;2022-12-18T03:43:23;-10.20;99.90
8178;DHT22;4130;48.740;9.132;2022-12-18T03:45:54;-10.20;99.90
8178;DHT22;4130;48.740;9.132;2022-12-18T03:48:29;-10.30;99.90
8178;DHT22;4130;48.740;9.132;2022-12-18T03:50:58;-10.30;99.90
8178;DHT22;4130;48.740;9.132;2022-12-18T03:53:34;-10.30;99.90
8178;DHT22;4130;48.740;9.132;2022-12-18T03:56:02;-10.40;99.90
8178;DHT22;4130;48.740;9.132;2022-12-18T03:58:33;-10.40;99.90
8178;DHT22;4130;48.740;9.132;2022-12-18T04:01:02;-10.50;99.90
8178;DHT22;4130;48.740;9.132;2022-12-18T04:03:35;-10.50;99.90
8178;DHT22;4130;48.740;9.132;2022-12-18T04:06:03;-10.50;99.90
8178;DHT22;4130;48.740;9.132;2022-12-18T04:08:32;-10.50;99.90
8178;DHT22;4130;48.740;9.132;2022-12-18T04:11:00;-10.50;99.90
8178;DHT22;4130;48.740;9.132;2022-12-18T04:13:29;-10.60;99.90
8178;DHT22;4130;48.740;9.132;2022-12-18T04:15:57;-10.60;99.90
8178;DHT22;4130;48.740;9.132;2022-12-18T04:18:24;-10.60;99.90
8178;DHT22;4130;48.740;9.132;2022-12-18T04:20:51;-10.50;99.90
8178;DHT22;4130;48.740;9.132;2022-12-18T04:23:18;-10.70;99.90
8178;DHT22;4130;48.740;9.132;2022-12-18T04:25:46;-10.70;99.90
8178;DHT22;4130;48.740;9.132;2022-12-18T04:28:14;-10.70;99.90
8178;DHT22;4130;48.740;9.132;2022-12-18T04:30:41;-10.70;99.90
8178;DHT22;4130;48.740;9.132;2022-12-18T04:33:10;-10.70;99.90
8178;DHT22;4130;48.740;9.132;2022-12-18T04:35:37;-10.60;99.90
8178;DHT22;4130;48.740;9.132;2022-12-18T04:38:05;-10.60;99.90
8178;DHT22;4130;48.740;9.132;2022-12-18T04:40:36;-10.70;99.90
8178;DHT22;4130;48.740;9.132;2022-12-18T04:43:03;-10.70;99.90
8178;DHT22;4130;48.740;9.132;2022-12-18T04:45:30;-10.60;99.90
8178;DHT22;4130;48.740;9.132;2022-12-18T04:47:57;-10.60;99.90
8178;DHT22;4130;48.740;9.132;2022-12-18T04:50:25;-10.60;99.90
8178;DHT22;4130;48.740;9.132;2022-12-18T04:52:52;-10.60;99.90
8178;DHT22;4130;48.740;9.132;2022-12-18T04:55:19;-10.60;99.90
8178;DHT22;4130;48.740;9.132;2022-12-18T04:57:46;-10.50;99.90
8178;DHT22;4130;48.740;9.132;2022-12-18T05:00:14;-10.50;99.90
8178;DHT22;4130;48.740;9.132;2022-12-18T05:02:41;-10.60;99.90
8178;DHT22;4130;48.740;9.132;2022-12-18T05:05:08;-10.50;99.90
8178;DHT22;4130;48.740;9.132;2022-12-18T05:07:36;-10.60;99.90
8178;DHT22;4130;48.740;9.132;2022-12-18T05:10:04;-10.60;99.90
8178;DHT22;4130;48.740;9.132;2022-12-18T05:12:32;-10.60;99.90
8178;DHT22;4130;48.740;9.132;2022-12-18T05:14:59;-10.70;99.90
8178;DHT22;4130;48.740;9.132;2022-12-18T05:17:26;-10.70;99.90
8178;DHT22;4130;48.740;9.132;2022-12-18T05:19:53;-10.80;99.90
8178;DHT22;4130;48.740;9.132;2022-12-18T05:22:19;-10.90;99.90
8178;DHT22;4130;48.740;9.132;2022-12-18T05:24:48;-11.00;99.90
8178;DHT22;4130;48.740;9.132;2022-12-18T05:27:14;-11.00;99.90
8178;DHT22;4130;48.740;9.132;2022-12-18T05:29:41;-11.10;99.90
8178;DHT22;4130;48.740;9.132;2022-12-18T05:32:08;-11.10;99.90
8178;DHT22;4130;48.740;9.132;2022-12-18T05:34:35;-11.00;99.90
8178;DHT22;4130;48.740;9.132;2022-12-18T05:37:02;-11.10;99.90
8178;DHT22;4130;48.740;9.132;2022-12-18T05:39:29;-11.10;99.90
8178;DHT22;4130;48.740;9.132;2022-12-18T05:41:57;-11.10;99.90
8178;DHT22;4130;48.740;9.132;2022-12-18T05:44:24;-11.10;99.90
8178;DHT22;4130;48.740;9.132;2022-12-18T05:46:51;-11.10;99.90
8178;DHT22;4130;48.740;9.132;2022-12-18T05:49:23;-11.10;99.90
8178;DHT22;4130;48.740;9.132;2022-12-18T05:51:50;-11.10;99.90
8178;DHT22;4130;48.740;9.132;2022-12-18T05:54:17;-11.20;99.90
8178;DHT22;4130;48.740;9.132;2022-12-18T05:56:44;-11.20;99.90
8178;DHT22;4130;48.740;9.132;2022-12-18T05:59:12;-11.30;99.90
8178;DHT22;4130;48.740;9.132;2022-12-18T06:01:39;-11.20;99.90
8178;DHT22;4130;48.740;9.132;2022-12-18T06:04:06;-11.30;99.90
8178;DHT22;4130;48.740;9.132;2022-12-18T06:06:33;-11.30;99.90
8178;DHT22;4130;48.740;9.132;2022-12-18T06:09:00;-11.30;99.90
8178;DHT22;4130;48.740;9.132;2022-12-18T06:11:34;-11.40;99.90
8178;DHT22;4130;48.740;9.132;2022-12-18T06:14:01;-11.40;99.90
8178;DHT22;4130;48.740;9.132;2022-12-18T06:16:30;-11.40;99.90
8178;DHT22;4130;48.740;9.132;2022-12-18T06:18:57;-11.40;99.90
8178;DHT22;4130;48.740;9.132;2022-12-18T06:21:24;-11.40;99.90
8178;DHT22;4130;48.740;9.132;2022-12-18T06:23:51;-11.40;99.90
8178;DHT22;4130;48.740;9.132;2022-12-18T06:26:18;-11.40;99.90
8178;DHT22;4130;48.740;9.132;2022-12-18T06:28:45;-11.40;99.90
8178;DHT22;4130;48.740;9.132;2022-12-18T06:31:12;-11.40;99.90
8178;DHT22;4130;48.740;9.132;2022-12-18T06:33:41;-11.50;99.90
8178;DHT22;4130;48.740;9.132;2022-12-18T06:36:10;-11.50;99.90
8178;DHT22;4130;48.740;9.132;2022-12-18T06:38:40;-11.50;99.90
8178;DHT22;4130;48.740;9.132;2022-12-18T06:41:07;-11.60;99.90
8178;DHT22;4130;48.740;9.132;2022-12-18T06:43:34;-11.60;99.90
8178;DHT22;4130;48.740;9.132;2022-12-18T06:46:02;-11.60;99.90
8178;DHT22;4130;48.740;9.132;2022-12-18T06:48:30;-11.60;99.90
8178;DHT22;4130;48.740;9.132;2022-12-18T06:50:58;-11.60;99.90
8178;DHT22;4130;48.740;9.132;2022-12-18T06:53:25;-11.60;99.90
8178;DHT22;4130;48.740;9.132;2022-12-18T06:55:53;-11.60;99.90
8178;DHT22;4130;48.740;9.132;2022-12-18T06:58:19;-11.60;99.90
8178;DHT22;4130;48.740;9.132;2022-12-18T07:00:46;-11.50;99.90
8178;DHT22;4130;48.740;9.132;2022-12-18T07:03:13;-11.50;99.90
8178;DHT22;4130;48.740;9.132;2022-12-18T07:05:40;-11.60;99.90
8178;DHT22;4130;48.740;9.132;2022-12-18T07:08:09;-11.60;99.90
8178;DHT22;4130;48.740;9.132;2022-12-18T07:10:41;-11.60;99.90
8178;DHT22;4130;48.740;9.132;2022-12-18T07:13:07;-11.60;99.90
8178;DHT22;4130;48.740;9.132;2022-12-18T07:15:37;-11.50;99.90
8178;DHT22;4130;48.740;9.132;2022-12-18T07:18:04;-11.50;99.90
8178;DHT22;4130;48.740;9.132;2022-12-18T07:20:30;-11.50;99.90
8178;DHT22;4130;48.740;9.132;2022-12-18T07:22:57;-11.50;99.90
8178;DHT22;4130;48.740;9.132;2022-12-18T07:25:26;-11.40;99.90
8178;DHT22;4130;48.740;9.132;2022-12-18T07:27:53;-11.40;99.90
8178;DHT22;4130;48.740;9.132;2022-12-18T07:30:20;-11.40;99.90
8178;DHT22;4130;48.740;9.132;2022-12-18T07:32:47;-11.40;99.90
8178;DHT22;4130;48.740;9.132;2022-12-18T07:35:15;-11.30;99.90
8178;DHT22;4130;48.740;9.132;2022-12-18T07:37:42;-11.30;99.90
8178;DHT22;4130;48.740;9.132;2022-12-18T07:40:10;-11.20;99.90
8178;DHT22;4130;48.740;9.132;2022-12-18T07:42:38;-11.20;99.90
8178;DHT22;4130;48.740;9.132;2022-12-18T07:45:06;-11.20;99.90
8178;DHT22;4130;48.740;9.132;2022-12-18T07:47:34;-11.20;99.90
8178;DHT22;4130;48.740;9.132;2022-12-18T07:50:02;-11.20;99.90
8178;DHT22;4130;48.740;9.132;2022-12-18T07:52:29;-11.20;99.90
8178;DHT22;4130;48.740;9.132;2022-12-18T07:54:55;-11.20;99.90
8178;DHT22;4130;48.740;9.132;2022-12-18T07:57:22;-11.10;99.90
8178;DHT22;4130;48.740;9.132;2022-12-18T07:59:51;-11.00;99.90
8178;DHT22;4130;48.740;9.132;2022-12-18T08:02:17;-11.00;99.90
8178;DHT22;4130;48.740;9.132;2022-12-18T08:04:44;-11.00;99.90
8178;DHT22;4130;48.740;9.132;2022-12-18T08:07:11;-10.90;99.90
8178;DHT22;4130;48.740;9.132;2022-12-18T08:09:39;-10.90;99.90
8178;DHT22;4130;48.740;9.132;2022-12-18T08:12:06;-11.00;99.90
8178;DHT22;4130;48.740;9.132;2022-12-18T08:14:33;-11.00;99.90
8178;DHT22;4130;48.740;9.132;2022-12-18T08:17:01;-11.00;99.90
8178;DHT22;4130;48.740;9.132;2022-12-18T08:19:28;-11.00;99.90
8178;DHT22;4130;48.740;9.132;2022-12-18T08:21:55;-10.90;99.90
8178;DHT22;4130;48.740;9.132;2022-12-18T08:24:22;-10.90;99.90
8178;DHT22;4130;48.740;9.132;2022-12-18T08:26:49;-10.80;99.90
8178;DHT22;4130;48.740;9.132;2022-12-18T08:29:16;-10.80;99.90
8178;DHT22;4130;48.740;9.132;2022-12-18T08:31:43;-10.70;99.90
8178;DHT22;4130;48.740;9.132;2022-12-18T08:34:11;-10.70;99.90
8178;DHT22;4130;48.740;9.132;2022-12-18T08:36:38;-10.60;99.90
8178;DHT22;4130;48.740;9.132;2022-12-18T08:39:05;-10.60;99.90
8178;DHT22;4130;48.740;9.132;2022-12-18T08:41:32;-10.50;99.90
8178;DHT22;4130;48.740;9.132;2022-12-18T08:43:59;-10.30;99.90
8178;DHT22;4130;48.740;9.132;2022-12-18T08:46:44;-10.20;99.90
8178;DHT22;4130;48.740;9.132;2022-12-18T08:49:12;-10.10;99.90
8178;DHT22;4130;48.740;9.132;2022-12-18T08:51:39;-10.00;99.90
8178;DHT22;4130;48.740;9.132;2022-12-18T08:54:07;-9.90;99.90
8178;DHT22;4130;48.740;9.132;2022-12-18T08:56:34;-9.70;99.90
8178;DHT22;4130;48.740;9.132;2022-12-18T08:59:01;-9.60;99.90
8178;DHT22;4130;48.740;9.132;2022-12-18T09:01:28;-9.50;99.90
8178;DHT22;4130;48.740;9.132;2022-12-18T09:03:55;-9.40;99.90
8178;DHT22;4130;48.740;9.132;2022-12-18T09:06:23;-9.30;99.90
8178;DHT22;4130;48.740;9.132;2022-12-18T09:08:52;-9.10;99.90
8178;DHT22;4130;48.740;9.132;2022-12-18T09:11:20;-9.10;99.90
8178;DHT22;4130;48.740;9.132;2022-12-18T09:13:48;-9.10;99.90
8178;DHT22;4130;48.740;9.132;2022-12-18T09:16:15;-8.90;99.90
8178;DHT22;4130;48.740;9.132;2022-12-18T09:18:42;-8.80;99.90
8178;DHT22;4130;48.740;9.132;2022-12-18T09:21:11;-8.70;99.90
8178;DHT22;4130;48.740;9.132;2022-12-18T09:23:41;-8.50;99.90
8178;DHT22;4130;48.740;9.132;2022-12-18T09:26:09;-8.30;99.90
8178;DHT22;4130;48.740;9.132;2022-12-18T09:28:36;-8.20;99.90
8178;DHT22;4130;48.740;9.132;2022-12-18T09:31:07;-8.00;99.90
8178;DHT22;4130;48.740;9.132;2022-12-18T09:33:34;-7.90;99.90
8178;DHT22;4130;48.740;9.132;2022-12-18T09:36:03;-7.70;99.90
8178;DHT22;4130;48.740;9.132;2022-12-18T09:38:33;-7.70;99.90
8178;DHT22;4130;48.740;9.132;2022-12-18T09:41:05;-7.50;99.90
8178;DHT22;4130;48.740;9.132;2022-12-18T09:43:36;-7.40;99.90
8178;DHT22;4130;48.740;9.132;2022-12-18T09:46:09;-7.20;99.90
8178;DHT22;4130;48.740;9.132;2022-12-18T09:48:40;-7.10;99.90
8178;DHT22;4130;48.740;9.132;2022-12-18T09:51:14;-6.90;99.90
8178;DHT22;4130;48.740;9.132;2022-12-18T09:53:46;-6.80;99.90
8178;DHT22;4130;48.740;9.132;2022-12-18T09:56:17;-6.60;99.90
8178;DHT22;4130;48.740;9.132;2022-12-18T09:58:55;-6.50;99.90
8178;DHT22;4130;48.740;9.132;2022-12-18T10:01:24;-6.40;99.90
8178;DHT22;4130;48.740;9.132;2022-12-18T10:03:52;-6.20;99.90
8178;DHT22;4130;48.740;9.132;2022-12-18T10:06:23;-6.10;99.90
8178;DHT22;4130;48.740;9.132;2022-12-18T10:08:59;-6.00;99.90
8178;DHT22;4130;48.740;9.132;2022-12-18T10:11:38;-5.90;99.90
8178;DHT22;4130;48.740;9.132;2022-12-18T10:14:15;-5.80;99.90
8178;DHT22;4130;48.740;9.132;2022-12-18T10:16:56;-5.60;99.90
8178;DHT22;4130;48.740;9.132;2022-12-18T10:19:35;-5.50;99.90
8178;DHT22;4130;48.740;9.132;2022-12-18T10:22:11;-5.30;99.90
8178;DHT22;4130;48.740;9.132;2022-12-18T10:24:44;-5.20;99.90
8178;DHT22;4130;48.740;9.132;2022-12-18T10:27:15;-5.10;99.90
8178;DHT22;4130;48.740;9.132;2022-12-18T10:29:43;-5.00;99.90
8178;DHT22;4130;48.740;9.132;2022-12-18T10:32:14;-4.90;99.90
8178;DHT22;4130;48.740;9.132;2022-12-18T10:34:45;-4.80;99.90
8178;DHT22;4130;48.740;9.132;2022-12-18T10:37:16;-4.60;99.90
8178;DHT22;4130;48.740;9.132;2022-12-18T10:39:44;-4.40;99.90
8178;DHT22;4130;48.740;9.132;2022-12-18T10:42:18;-4.20;99.90
8178;DHT22;4130;48.740;9.132;2022-12-18T10:44:45;-4.10;99.90
8178;DHT22;4130;48.740;9.132;2022-12-18T10:47:14;-3.90;99.90
8178;DHT22;4130;48.740;9.132;2022-12-18T10:49:48;-3.70;99.90
8178;DHT22;4130;48.740;9.132;2022-12-18T10:52:18;-3.60;99.90
8178;DHT22;4130;48.740;9.132;2022-12-18T10:54:50;-3.50;99.90
8178;DHT22;4130;48.740;9.132;2022-12-18T10:57:34;-3.40;99.90
8178;DHT22;4130;48.740;9.132;2022-12-18T11:00:24;-3.40;99.90
8178;DHT22;4130;48.740;9.132;2022-12-18T11:02:51;-3.40;99.90
8178;DHT22;4130;48.740;9.132;2022-12-18T11:05:29;-3.30;99.90
8178;DHT22;4130;48.740;9.132;2022-12-18T11:07:58;-3.20;99.90
8178;DHT22;4130;48.740;9.132;2022-12-18T11:10:29;-3.00;99.90
8178;DHT22;4130;48.740;9.132;2022-12-18T11:13:09;-2.90;99.90
8178;DHT22;4130;48.740;9.132;2022-12-18T11:15:37;-2.80;99.90
8178;DHT22;4130;48.740;9.132;2022-12-18T11:18:19;-2.70;99.90
8178;DHT22;4130;48.740;9.132;2022-12-18T11:20:52;-2.60;99.90
8178;DHT22;4130;48.740;9.132;2022-12-18T11:23:21;-2.50;99.90
8178;DHT22;4130;48.740;9.132;2022-12-18T11:25:54;-2.30;99.90
8178;DHT22;4130;48.740;9.132;2022-12-18T11:28:29;-2.50;99.90
8178;DHT22;4130;48.740;9.132;2022-12-18T11:31:22;-2.50;99.90
8178;DHT22;4130;48.740;9.132;2022-12-18T11:34:08;-2.60;99.90
8178;DHT22;4130;48.740;9.132;2022-12-18T11:36:39;-2.60;99.90
8178;DHT22;4130;48.740;9.132;2022-12-18T11:39:14;-2.40;99.90
8178;DHT22;4130;48.740;9.132;2022-12-18T11:41:49;-2.40;99.90
8178;DHT22;4130;48.740;9.132;2022-12-18T11:44:42;-2.40;99.90
8178;DHT22;4130;48.740;9.132;2022-12-18T11:47:15;-2.30;99.90
8178;DHT22;4130;48.740;9.132;2022-12-18T11:49:48;-2.30;99.90
8178;DHT22;4130;48.740;9.132;2022-12-18T11:52:18;-2.20;99.90
8178;DHT22;4130;48.740;9.132;2022-12-18T11:54:51;-2.10;99.90
8178;DHT22;4130;48.740;9.132;2022-12-18T11:57:28;-2.10;99.90
8178;DHT22;4130;48.740;9.132;2022-12-18T12:00:11;-2.00;99.90
8178;DHT22;4130;48.740;9.132;2022-12-18T12:02:49;-1.90;99.90
8178;DHT22;4130;48.740;9.132;2022-12-18T12:05:42;-1.90;99.90
8178;DHT22;4130;48.740;9.132;2022-12-18T12:08:19;-1.80;99.90
8178;DHT22;4130;48.740;9.132;2022-12-18T12:10:57;-1.90;99.90
8178;DHT22;4130;48.740;9.132;2022-12-18T12:13:38;-2.20;99.90
8178;DHT22;4130;48.740;9.132;2022-12-18T12:16:15;-2.20;99.90
8178;DHT22;4130;48.740;9.132;2022-12-18T12:18:54;-2.20;99.90
8178;DHT22;4130;48.740;9.132;2022-12-18T12:21:27;-2.10;99.90
8178;DHT22;4130;48.740;9.132;2022-12-18T12:24:03;-2.20;99.90
8178;DHT22;4130;48.740;9.132;2022-12-18T12:26:42;-2.30;99.90
8178;DHT22;4130;48.740;9.132;2022-12-18T12:29:25;-2.20;99.90
8178;DHT22;4130;48.740;9.132;2022-12-18T12:32:16;-2.10;99.90
8178;DHT22;4130;48.740;9.132;2022-12-18T12:34:58;-2.10;99.90
8178;DHT22;4130;48.740;9.132;2022-12-18T12:37:33;-2.10;99.90
8178;DHT22;4130;48.740;9.132;2022-12-18T12:40:03;-2.10;99.90
8178;DHT22;4130;48.740;9.132;2022-12-18T12:42:38;-2.10;99.90
8178;DHT22;4130;48.740;9.132;2022-12-18T12:45:34;-2.20;99.90
8178;DHT22;4130;48.740;9.132;2022-12-18T12:48:13;-2.40;99.90
8178;DHT22;4130;48.740;9.132;2022-12-18T12:50:41;-2.40;99.90
8178;DHT22;4130;48.740;9.132;2022-12-18T12:53:21;-2.60;99.90
8178;DHT22;4130;48.740;9.132;2022-12-18T12:55:50;-2.50;99.90
8178;DHT22;4130;48.740;9.132;2022-12-18T12:58:26;-2.40;99.90
8178;DHT22;4130;48.740;9.132;2022-12-18T13:01:05;-2.40;99.90
8178;DHT22;4130;48.740;9.132;2022-12-18T13:03:43;-2.30;99.90
8178;DHT22;4130;48.740;9.132;2022-12-18T13:06:18;-2.30;99.90
8178;DHT22;4130;48.740;9.132;2022-12-18T13:08:54;-2.30;99.90
8178;DHT22;4130;48.740;9.132;2022-12-18T13:11:35;-2.30;99.90
8178;DHT22;4130;48.740;9.132;2022-12-18T13:14:23;-2.30;99.90
8178;DHT22;4130;48.740;9.132;2022-12-18T13:16:50;-2.30;99.90
8178;DHT22;4130;48.740;9.132;2022-12-18T13:19:23;-2.50;99.90
8178;DHT22;4130;48.740;9.132;2022-12-18T13:21:54;-2.40;99.90
8178;DHT22;4130;48.740;9.132;2022-12-18T13:24:25;-2.40;99.90
8178;DHT22;4130;48.740;9.132;2022-12-18T13:26:53;-2.30;99.90
8178;DHT22;4130;48.740;9.132;2022-12-18T13:29:42;-2.20;99.90
8178;DHT22;4130;48.740;9.132;2022-12-18T13:32:24;-2.30;99.90
8178;DHT22;4130;48.740;9.132;2022-12-18T13:37:53;-2.30;99.90
8178;DHT22;4130;48.740;9.132;2022-12-18T13:43:26;-2.20;99.90
8178;DHT22;4130;48.740;9.132;2022-12-18T13:46:18;-2.20;99.90
8178;DHT22;4130;48.740;9.132;2022-12-18T13:48:57;-2.10;99.90
8178;DHT22;4130;48.740;9.132;2022-12-18T13:51:25;-2.00;99.90
8178;DHT22;4130;48.740;9.132;2022-12-18T13:53:57;-2.00;99.90
8178;DHT22;4130;48.740;9.132;2022-12-18T13:56:26;-2.00;99.90
8178;DHT22;4130;48.740;9.132;2022-12-18T13:59:13;-2.10;99.90
8178;DHT22;4130;48.740;9.132;2022-12-18T14:01:46;-2.10;99.90
8178;DHT22;4130;48.740;9.132;2022-12-18T14:04:21;-2.20;99.90
8178;DHT22;4130;48.740;9.132;2022-12-18T14:06:51;-2.20;99.90
8178;DHT22;4130;48.740;9.132;2022-12-18T14:09:23;-2.20;99.90
8178;DHT22;4130;48.740;9.132;2022-12-18T14:11:52;-2.30;99.90
8178;DHT22;4130;48.740;9.132;2022-12-18T14:14:42;-2.30;99.90
8178;DHT22;4130;48.740;9.132;2022-12-18T14:17:10;-2.40;99.90
8178;DHT22;4130;48.740;9.132;2022-12-18T14:19:41;-2.50;99.90
8178;DHT22;4130;48.740;9.132;2022-12-18T14:22:14;-2.50;99.90
8178;DHT22;4130;48.740;9.132;2022-12-18T14:24:43;-2.60;99.90
8178;DHT22;4130;48.740;9.132;2022-12-18T14:27:21;-2.70;99.90
8178;DHT22;4130;48.740;9.132;2022-12-18T14:29:48;-2.80;99.90
8178;DHT22;4130;48.740;9.132;2022-12-18T14:32:17;-2.90;99.90
8178;DHT22;4130;48.740;9.132;2022-12-18T14:34:45;-3.00;99.90
8178;DHT22;4130;48.740;9.132;2022-12-18T14:37:14;-3.00;99.90
8178;DHT22;4130;48.740;9.132;2022-12-18T14:39:53;-3.10;99.90
8178;DHT22;4130;48.740;9.132;2022-12-18T14:42:21;-3.20;99.90
8178;DHT22;4130;48.740;9.132;2022-12-18T14:44:47;-3.20;99.90
8178;DHT22;4130;48.740;9.132;2022-12-18T14:47:15;-3.30;99.90
8178;DHT22;4130;48.740;9.132;2022-12-18T14:49:42;-3.40;99.90
8178;DHT22;4130;48.740;9.132;2022-12-18T14:52:21;-3.40;99.90
8178;DHT22;4130;48.740;9.132;2022-12-18T14:54:49;-3.50;99.90
8178;DHT22;4130;48.740;9.132;2022-12-18T14:57:22;-3.60;99.90
8178;DHT22;4130;48.740;9.132;2022-12-18T14:59:50;-3.70;99.90
8178;DHT22;4130;48.740;9.132;2022-12-18T15:02:20;-3.80;99.90
8178;DHT22;4130;48.740;9.132;2022-12-18T15:04:59;-3.90;99.90
8178;DHT22;4130;48.740;9.132;2022-12-18T15:07:34;-4.00;99.90
8178;DHT22;4130;48.740;9.132;2022-12-18T15:10:11;-4.10;99.90
8178;DHT22;4130;48.740;9.132;2022-12-18T15:12:42;-4.20;99.90
8178;DHT22;4130;48.740;9.132;2022-12-18T15:18:20;-4.40;99.90
8178;DHT22;4130;48.740;9.132;2022-12-18T15:20:51;-4.50;99.90
8178;DHT22;4130;48.740;9.132;2022-12-18T15:23:22;-4.50;99.90
8178;DHT22;4130;48.740;9.132;2022-12-18T15:25:55;-4.70;99.90
8178;DHT22;4130;48.740;9.132;2022-12-18T15:28:26;-4.80;99.90
8178;DHT22;4130;48.740;9.132;2022-12-18T15:31:04;-4.90;99.90
8178;DHT22;4130;48.740;9.132;2022-12-18T15:33:33;-4.90;99.90
8178;DHT22;4130;48.740;9.132;2022-12-18T15:36:03;-5.00;99.90
8178;DHT22;4130;48.740;9.132;2022-12-18T15:38:31;-5.00;99.90
8178;DHT22;4130;48.740;9.132;2022-12-18T15:40:58;-5.00;99.90
8178;DHT22;4130;48.740;9.132;2022-12-18T15:43:27;-5.00;99.90
8178;DHT22;4130;48.740;9.132;2022-12-18T15:45:59;-5.00;99.90
8178;DHT22;4130;48.740;9.132;2022-12-18T15:48:26;-5.10;99.90
8178;DHT22;4130;48.740;9.132;2022-12-18T15:50:54;-5.20;99.90
8178;DHT22;4130;48.740;9.132;2022-12-18T15:53:23;-5.30;99.90
8178;DHT22;4130;48.740;9.132;2022-12-18T15:55:50;-5.40;99.90
8178;DHT22;4130;48.740;9.132;2022-12-18T15:58:36;-5.40;99.90
8178;DHT22;4130;48.740;9.132;2022-12-18T16:01:03;-5.40;99.90
8178;DHT22;4130;48.740;9.132;2022-12-18T16:03:30;-5.40;99.90
8178;DHT22;4130;48.740;9.132;2022-12-18T16:05:56;-5.40;99.90
8178;DHT22;4130;48.740;9.132;2022-12-18T16:08:27;-5.50;99.90
8178;DHT22;4130;48.740;9.132;2022-12-18T16:10:54;-5.50;99.90
8178;DHT22;4130;48.740;9.132;2022-12-18T16:13:21;-5.50;99.90
8178;DHT22;4130;48.740;9.132;2022-12-18T16:15:49;-5.60;99.90
8178;DHT22;4130;48.740;9.132;2022-12-18T16:18:16;-5.50;99.90
8178;DHT22;4130;48.740;9.132;2022-12-18T16:20:43;-5.60;99.90
8178;DHT22;4130;48.740;9.132;2022-12-18T16:23:11;-5.60;99.90
8178;DHT22;4130;48.740;9.132;2022-12-18T16:25:38;-5.60;99.90
8178;DHT22;4130;48.740;9.132;2022-12-18T16:28:05;-5.60;99.90